createdAt,value
2022-08-30T00:00:45.774Z,1.40
2022-08-30T00:01:45.778Z,1.40
2022-08-30T00:02:45.817Z,1.80
2022-08-30T00:03:45.965Z,1.40
2022-08-30T00:04:45.717Z,1.20
2022-08-30T00:05:45.719Z,1.20
2022-08-30T00:06:45.709Z,1.50
2022-08-30T00:07:45.688Z,1.40
2022-08-30T00:08:45.679Z,1.70
2022-08-30T00:09:45.667Z,1.40
2022-08-30T00:10:45.649Z,1.40
2022-08-30T00:11:45.660Z,1.20
2022-08-30T00:12:45.628Z,1.50
2022-08-30T00:13:45.620Z,1.40
2022-08-30T00:14:45.610Z,1.40
2022-08-30T00:15:45.667Z,1.30
2022-08-30T00:16:45.604Z,1.40
2022-08-30T00:17:45.571Z,1.50
2022-08-30T00:18:45.562Z,1.20
2022-08-30T00:19:45.555Z,1.50
2022-08-30T00:20:45.543Z,1.50
2022-08-30T00:21:45.546Z,1.20
2022-08-30T00:22:45.523Z,1.50
2022-08-30T00:23:45.514Z,1.20
2022-08-30T00:24:45.484Z,1.40
2022-08-30T00:25:45.485Z,1.40
2022-08-30T00:26:45.492Z,1.50
2022-08-30T00:27:45.465Z,1.40
2022-08-30T00:28:45.446Z,1.30
2022-08-30T00:29:45.435Z,1.20
2022-08-30T00:30:45.441Z,1.30
2022-08-30T00:31:45.427Z,1.10
2022-08-30T00:32:45.398Z,1.40
2022-08-30T00:33:45.387Z,1.40
2022-08-30T00:34:45.381Z,1.20
2022-08-30T00:35:45.368Z,1.60
2022-08-30T00:36:45.371Z,1.30
2022-08-30T00:37:45.348Z,1.20
2022-08-30T00:38:45.338Z,1.20
2022-08-30T00:39:45.328Z,1.40
2022-08-30T00:40:45.350Z,1.30
2022-08-30T00:41:45.320Z,1.40
2022-08-30T00:42:45.291Z,1.40
2022-08-30T00:43:46.284Z,1.20
2022-08-30T00:44:45.262Z,1.30
2022-08-30T00:45:45.263Z,1.30
2022-08-30T00:46:45.263Z,1.30
2022-08-30T00:47:45.233Z,1.20
2022-08-30T00:48:45.221Z,1.20
2022-08-30T00:49:45.214Z,1.40
2022-08-30T00:50:45.194Z,1.40
2022-08-30T00:51:45.203Z,1.40
2022-08-30T00:52:45.173Z,1.20
2022-08-30T00:53:45.165Z,1.60
2022-08-30T00:54:45.146Z,1.30
2022-08-30T00:55:45.144Z,1.40
2022-08-30T00:56:45.144Z,1.30
2022-08-30T00:57:45.127Z,1.30
2022-08-30T00:58:45.110Z,1.20
2022-08-30T00:59:45.099Z,1.10
2022-08-30T01:00:45.098Z,1.30
2022-08-30T01:01:45.122Z,1.60
2022-08-30T01:02:45.095Z,1.20
2022-08-30T01:03:45.044Z,1.20
2022-08-30T01:04:45.029Z,1.20
2022-08-30T01:05:45.040Z,1.20
2022-08-30T01:06:45.014Z,1.10
2022-08-30T01:07:45.005Z,1.30
2022-08-30T01:08:44.990Z,1.50
2022-08-30T01:09:44.990Z,1.20
2022-08-30T01:10:44.983Z,1.30
2022-08-30T01:11:44.968Z,1.00
2022-08-30T01:12:44.953Z,1.40
2022-08-30T01:13:44.943Z,1.20
2022-08-30T01:14:44.943Z,1.20
2022-08-30T01:15:44.941Z,1.20
2022-08-30T01:16:44.904Z,1.20
2022-08-30T01:17:44.904Z,1.20
2022-08-30T01:18:44.878Z,1.30
2022-08-30T01:19:44.876Z,1.20
2022-08-30T01:20:44.856Z,1.40
2022-08-30T01:21:44.846Z,1.10
2022-08-30T01:22:44.979Z,1.30
2022-08-30T01:23:44.826Z,1.40
2022-08-30T01:24:44.826Z,1.20
2022-08-30T01:25:44.795Z,1.30
2022-08-30T01:26:44.796Z,1.20
2022-08-30T01:27:46.238Z,1.30
2022-08-30T01:28:44.769Z,1.30
2022-08-30T01:29:44.768Z,1.30
2022-08-30T01:30:44.840Z,1.40
2022-08-30T01:31:44.730Z,1.10
2022-08-30T01:32:44.720Z,1.20
2022-08-30T01:33:44.700Z,1.20
2022-08-30T01:34:44.711Z,1.20
2022-08-30T01:35:44.681Z,1.10
2022-08-30T01:36:45.284Z,1.00
2022-08-30T01:37:44.663Z,1.10
2022-08-30T01:38:44.651Z,1.10
2022-08-30T01:39:44.661Z,1.20
2022-08-30T01:40:44.799Z,1.20
2022-08-30T01:41:44.623Z,1.30
2022-08-30T01:42:44.613Z,1.50
2022-08-30T01:43:44.598Z,1.20
2022-08-30T01:44:44.597Z,1.20
2022-08-30T01:45:44.621Z,1.30
2022-08-30T01:46:44.565Z,1.30
2022-08-30T01:47:44.552Z,1.20
2022-08-30T01:48:50.258Z,1.10
2022-08-30T01:49:45.547Z,1.10
2022-08-30T01:50:44.749Z,1.20
2022-08-30T01:51:44.515Z,1.30
2022-08-30T01:52:44.489Z,1.40
2022-08-30T01:53:44.478Z,1.20
2022-08-30T01:54:44.480Z,1.10
2022-08-30T01:55:44.459Z,1.10
2022-08-30T01:56:44.449Z,1.30
2022-08-30T01:57:44.441Z,1.10
2022-08-30T01:58:44.433Z,1.10
2022-08-30T01:59:44.431Z,1.30
2022-08-30T02:00:44.400Z,1.20
2022-08-30T02:01:44.436Z,1.20
2022-08-30T02:02:44.382Z,1.30
2022-08-30T02:03:44.452Z,1.20
2022-08-30T02:04:44.363Z,1.20
2022-08-30T02:05:44.343Z,1.20
2022-08-30T02:06:44.337Z,1.30
2022-08-30T02:07:44.324Z,1.30
2022-08-30T02:08:44.304Z,0.90
2022-08-30T02:09:44.316Z,1.20
2022-08-30T02:12:04.406Z,1.50
2022-08-30T02:13:05.027Z,1.40
2022-08-30T02:14:04.231Z,1.30
2022-08-30T02:15:04.237Z,1.10
2022-08-30T02:16:04.206Z,1.30
2022-08-30T02:17:04.253Z,1.40
2022-08-30T02:18:04.177Z,1.20
2022-08-30T02:19:04.187Z,1.20
2022-08-30T02:20:04.177Z,1.40
2022-08-30T02:21:04.158Z,1.00
2022-08-30T02:22:04.139Z,1.10
2022-08-30T02:23:04.140Z,1.40
2022-08-30T02:24:04.128Z,1.20
2022-08-30T02:25:04.132Z,1.30
2022-08-30T02:26:04.091Z,1.40
2022-08-30T02:27:04.091Z,1.10
2022-08-30T02:28:04.073Z,1.40
2022-08-30T02:29:04.070Z,1.20
2022-08-30T02:30:04.062Z,1.10
2022-08-30T02:31:04.103Z,1.50
2022-08-30T02:32:04.069Z,1.30
2022-08-30T02:33:04.023Z,1.30
2022-08-30T02:34:04.005Z,1.10
2022-08-30T02:35:04.022Z,1.20
2022-08-30T02:36:03.992Z,1.10
2022-08-30T02:37:03.976Z,1.10
2022-08-30T02:38:03.979Z,1.50
2022-08-30T02:39:03.976Z,1.30
2022-08-30T02:40:03.987Z,1.10
2022-08-30T02:41:03.934Z,1.20
2022-08-30T02:42:03.921Z,1.30
2022-08-30T02:43:03.915Z,1.20
2022-08-30T02:44:03.910Z,1.00
2022-08-30T02:45:03.888Z,1.10
2022-08-30T02:46:03.976Z,1.10
2022-08-30T02:47:03.876Z,1.20
2022-08-30T02:48:03.849Z,1.50
2022-08-30T02:49:23.773Z,1.30
2022-08-30T02:50:04.837Z,1.40
2022-08-30T02:51:03.829Z,1.40
2022-08-30T02:52:03.800Z,1.10
2022-08-30T02:53:03.800Z,1.30
2022-08-30T02:54:03.809Z,1.10
2022-08-30T02:55:03.781Z,1.20
2022-08-30T02:56:03.766Z,1.10
2022-08-30T02:57:03.752Z,1.40
2022-08-30T02:58:03.755Z,1.20
2022-08-30T02:59:03.750Z,1.30
2022-08-30T03:00:03.721Z,1.20
2022-08-30T03:01:03.771Z,1.30
2022-08-30T03:02:03.704Z,1.30
2022-08-30T03:03:03.694Z,1.10
2022-08-30T03:04:03.717Z,1.30
2022-08-30T03:05:03.666Z,1.10
2022-08-30T03:06:03.665Z,1.00
2022-08-30T03:07:03.639Z,1.10
2022-08-30T03:08:03.634Z,1.30
2022-08-30T03:09:03.628Z,1.30
2022-08-30T03:10:03.607Z,1.10
2022-08-30T03:11:03.597Z,1.10
2022-08-30T03:12:03.587Z,1.10
2022-08-30T03:13:03.584Z,1.20
2022-08-30T03:14:03.592Z,1.10
2022-08-30T03:15:03.549Z,1.20
2022-08-30T03:16:03.558Z,1.40
2022-08-30T03:17:03.537Z,1.20
2022-08-30T03:18:03.540Z,1.00
2022-08-30T03:19:03.502Z,1.20
2022-08-30T03:20:03.498Z,1.00
2022-08-30T03:21:03.482Z,1.20
2022-08-30T03:22:03.471Z,1.40
2022-08-30T03:23:03.479Z,1.10
2022-08-30T03:24:03.452Z,1.30
2022-08-30T03:25:03.435Z,1.00
2022-08-30T03:26:03.436Z,1.20
2022-08-30T03:27:03.413Z,1.20
2022-08-30T03:28:03.423Z,1.10
2022-08-30T03:29:03.404Z,1.10
2022-08-30T03:30:03.394Z,1.40
2022-08-30T03:31:03.373Z,1.10
2022-08-30T03:32:03.374Z,1.20
2022-08-30T03:33:03.373Z,1.20
2022-08-30T03:34:03.349Z,1.20
2022-08-30T03:35:03.326Z,1.40
2022-08-30T03:36:03.318Z,1.10
2022-08-30T03:37:03.308Z,1.30
2022-08-30T03:38:03.329Z,1.20
2022-08-30T03:39:03.290Z,1.10
2022-08-30T03:40:03.294Z,1.10
2022-08-30T03:41:03.258Z,1.10
2022-08-30T03:42:03.257Z,0.90
2022-08-30T03:43:03.248Z,1.70
2022-08-30T03:44:03.227Z,1.00
2022-08-30T03:45:03.221Z,1.10
2022-08-30T03:46:03.274Z,1.10
2022-08-30T03:47:03.190Z,1.10
2022-08-30T03:48:03.214Z,1.10
2022-08-30T03:49:03.180Z,1.40
2022-08-30T03:50:03.162Z,1.20
2022-08-30T03:51:03.143Z,1.20
2022-08-30T03:52:03.159Z,1.40
2022-08-30T03:53:03.134Z,1.20
2022-08-30T03:54:03.120Z,1.40
2022-08-30T03:55:03.106Z,1.20
2022-08-30T03:56:03.099Z,1.20
2022-08-30T03:57:03.093Z,1.10
2022-08-30T03:58:03.094Z,1.20
2022-08-30T03:59:03.055Z,1.30
2022-08-30T04:00:03.054Z,1.20
2022-08-30T04:01:03.115Z,1.00
2022-08-30T04:02:03.069Z,1.00
2022-08-30T04:03:03.035Z,1.00
2022-08-30T04:04:03.007Z,1.20
2022-08-30T04:05:02.997Z,1.20
2022-08-30T04:06:02.988Z,1.30
2022-08-30T04:07:02.968Z,1.10
2022-08-30T04:08:02.987Z,1.10
2022-08-30T04:09:02.947Z,1.40
2022-08-30T04:10:02.958Z,1.10
2022-08-30T04:11:02.929Z,1.20
2022-08-30T04:12:02.922Z,1.20
2022-08-30T04:13:02.918Z,1.00
2022-08-30T04:14:02.902Z,1.00
2022-08-30T04:15:02.881Z,1.20
2022-08-30T04:16:02.927Z,1.10
2022-08-30T04:17:02.861Z,1.20
2022-08-30T04:18:02.871Z,1.00
2022-08-30T04:19:03.262Z,1.20
2022-08-30T04:20:02.823Z,1.00
2022-08-30T04:21:02.813Z,1.20
2022-08-30T04:22:02.816Z,1.20
2022-08-30T04:23:02.810Z,1.20
2022-08-30T04:24:02.787Z,1.20
2022-08-30T04:25:02.766Z,0.90
2022-08-30T04:26:02.776Z,1.20
2022-08-30T04:27:02.759Z,1.10
2022-08-30T04:28:02.755Z,1.10
2022-08-30T04:29:02.727Z,1.20
2022-08-30T04:30:02.706Z,1.00
2022-08-30T04:31:02.707Z,1.10
2022-08-30T04:32:02.732Z,1.50
2022-08-30T04:33:02.696Z,1.10
2022-08-30T04:34:02.683Z,1.10
2022-08-30T04:35:02.677Z,1.20
2022-08-30T04:36:02.649Z,1.30
2022-08-30T04:37:02.638Z,1.20
2022-08-30T04:38:02.647Z,1.30
2022-08-30T04:39:02.610Z,1.20
2022-08-30T04:40:02.663Z,1.20
2022-08-30T04:41:02.599Z,1.10
2022-08-30T04:42:02.580Z,1.10
2022-08-30T04:43:02.581Z,1.20
2022-08-30T04:44:02.575Z,1.40
2022-08-30T04:45:02.552Z,1.10
2022-08-30T04:46:02.605Z,1.00
2022-08-30T04:47:02.523Z,1.20
2022-08-30T04:48:02.543Z,1.10
2022-08-30T04:49:02.521Z,1.10
2022-08-30T04:50:02.503Z,1.00
2022-08-30T04:51:02.492Z,1.30
2022-08-30T04:52:02.477Z,1.20
2022-08-30T04:53:02.478Z,1.30
2022-08-30T04:54:02.460Z,1.00
2022-08-30T04:55:02.438Z,1.10
2022-08-30T04:56:02.436Z,1.20
2022-08-30T04:57:02.425Z,1.30
2022-08-30T04:58:02.428Z,1.20
2022-08-30T04:59:02.396Z,1.20
2022-08-30T05:00:02.382Z,1.10
2022-08-30T05:01:02.515Z,1.10
2022-08-30T05:02:02.395Z,1.00
2022-08-30T05:03:02.368Z,1.30
2022-08-30T05:04:02.349Z,1.00
2022-08-30T05:05:02.328Z,1.30
2022-08-30T05:06:02.319Z,1.20
2022-08-30T05:07:02.303Z,1.00
2022-08-30T05:08:02.312Z,1.10
2022-08-30T05:09:02.281Z,1.30
2022-08-30T05:10:02.283Z,1.10
2022-08-30T05:11:02.251Z,1.30
2022-08-30T05:12:02.260Z,1.20
2022-08-30T05:13:02.252Z,1.10
2022-08-30T05:14:02.253Z,1.70
2022-08-30T05:15:02.224Z,1.70
2022-08-30T05:16:02.240Z,2.30
2022-08-30T05:17:02.209Z,1.70
2022-08-30T05:18:02.198Z,1.80
2022-08-30T05:19:02.177Z,1.50
2022-08-30T05:20:02.166Z,1.40
2022-08-30T05:21:02.155Z,1.50
2022-08-30T05:22:02.166Z,1.60
2022-08-30T05:23:02.136Z,1.50
2022-08-30T05:24:02.117Z,1.50
2022-08-30T05:25:02.137Z,1.60
2022-08-30T05:26:02.106Z,1.80
2022-08-30T05:27:02.107Z,1.50
2022-08-30T05:28:02.086Z,1.50
2022-08-30T05:29:02.068Z,1.50
2022-08-30T05:30:02.057Z,1.70
2022-08-30T05:31:02.089Z,1.60
2022-08-30T05:32:02.062Z,1.40
2022-08-30T05:33:02.018Z,1.40
2022-08-30T05:34:02.020Z,1.40
2022-08-30T05:35:02.003Z,1.60
2022-08-30T05:36:02.001Z,1.50
2022-08-30T05:37:02.066Z,1.20
2022-08-30T05:38:01.974Z,1.10
2022-08-30T05:39:01.951Z,1.70
2022-08-30T05:40:02.000Z,1.40
2022-08-30T05:41:05.217Z,1.60
2022-08-30T05:42:02.956Z,1.30
2022-08-30T05:43:01.907Z,1.50
2022-08-30T05:44:01.913Z,1.30
2022-08-30T05:45:01.885Z,1.40
2022-08-30T05:46:01.885Z,1.40
2022-08-30T05:47:01.885Z,1.40
2022-08-30T05:48:02.818Z,1.30
2022-08-30T05:49:01.845Z,1.40
2022-08-30T05:50:01.866Z,1.30
2022-08-30T05:51:01.865Z,1.30
2022-08-30T05:52:01.837Z,1.60
2022-08-30T05:53:01.807Z,1.20
2022-08-30T05:54:01.840Z,1.30
2022-08-30T05:55:01.772Z,1.30
2022-08-30T05:56:02.550Z,1.50
2022-08-30T05:57:01.769Z,1.40
2022-08-30T05:58:01.739Z,1.60
2022-08-30T05:59:01.732Z,1.30
2022-08-30T06:00:01.719Z,1.50
2022-08-30T06:01:01.721Z,1.50
2022-08-30T06:02:01.770Z,1.20
2022-08-30T06:03:01.737Z,1.50
2022-08-30T06:04:03.882Z,1.20
2022-08-30T06:05:01.662Z,1.40
2022-08-30T06:06:01.653Z,1.40
2022-08-30T06:07:01.654Z,1.20
2022-08-30T06:08:01.644Z,1.50
2022-08-30T06:09:01.623Z,1.40
2022-08-30T06:10:01.613Z,1.30
2022-08-30T06:11:02.444Z,1.30
2022-08-30T06:12:01.594Z,1.40
2022-08-30T06:13:01.595Z,1.60
2022-08-30T06:14:01.635Z,1.30
2022-08-30T06:15:01.546Z,1.10
2022-08-30T06:16:01.584Z,1.30
2022-08-30T06:17:01.528Z,1.30
2022-08-30T06:18:01.527Z,1.20
2022-08-30T06:19:01.515Z,1.30
2022-08-30T06:20:01.497Z,1.40
2022-08-30T06:21:01.497Z,1.40
2022-08-30T06:22:01.466Z,1.30
2022-08-30T06:23:01.461Z,1.30
2022-08-30T06:24:01.449Z,1.40
2022-08-30T06:25:01.428Z,1.40
2022-08-30T06:26:01.448Z,1.40
2022-08-30T06:27:01.438Z,1.40
2022-08-30T06:28:01.410Z,1.20
2022-08-30T06:29:01.392Z,1.40
2022-08-30T06:30:01.388Z,1.20
2022-08-30T06:31:01.460Z,1.40
2022-08-30T06:32:01.362Z,1.30
2022-08-30T06:33:01.352Z,1.20
2022-08-30T06:34:01.361Z,1.40
2022-08-30T06:35:01.369Z,1.30
2022-08-30T06:36:04.334Z,1.40
2022-08-30T06:37:01.324Z,1.50
2022-08-30T06:38:01.308Z,1.40
2022-08-30T06:39:01.288Z,1.20
2022-08-30T06:40:01.326Z,1.30
2022-08-30T06:41:01.295Z,1.40
2022-08-30T06:42:01.276Z,1.40
2022-08-30T06:43:01.261Z,1.20
2022-08-30T06:44:01.247Z,1.50
2022-08-30T06:45:01.227Z,1.90
2022-08-30T06:46:01.227Z,1.50
2022-08-30T06:47:01.226Z,1.70
2022-08-30T06:48:01.199Z,1.50
2022-08-30T06:49:01.193Z,1.70
2022-08-30T06:50:01.168Z,1.40
2022-08-30T06:51:01.242Z,1.70
2022-08-30T06:52:01.140Z,1.20
2022-08-30T06:53:01.137Z,1.70
2022-08-30T06:54:01.206Z,1.50
2022-08-30T06:55:01.109Z,2.30
2022-08-30T06:56:01.121Z,2.00
2022-08-30T06:57:01.089Z,2.30
2022-08-30T06:58:01.191Z,2.10
2022-08-30T06:59:01.064Z,2.30
2022-08-30T07:00:01.052Z,2.10
2022-08-30T07:01:01.091Z,2.00
2022-08-30T07:02:01.082Z,2.90
2022-08-30T07:03:01.100Z,2.60
2022-08-30T07:04:01.009Z,2.70
2022-08-30T07:05:00.990Z,2.90
2022-08-30T07:06:00.994Z,3.00
2022-08-30T07:07:00.982Z,3.10
2022-08-30T07:08:01.057Z,3.20
2022-08-30T07:09:00.947Z,3.30
2022-08-30T07:10:00.936Z,3.70
2022-08-30T07:11:00.982Z,3.20
2022-08-30T07:12:00.930Z,3.60
2022-08-30T07:13:00.951Z,3.60
2022-08-30T07:14:00.908Z,3.60
2022-08-30T07:15:00.888Z,4.10
2022-08-30T07:16:01.020Z,3.80
2022-08-30T07:17:00.884Z,4.40
2022-08-30T07:18:00.859Z,4.00
2022-08-30T07:19:00.848Z,4.10
2022-08-30T07:20:00.819Z,3.70
2022-08-30T07:21:00.871Z,3.60
2022-08-30T07:22:00.810Z,3.50
2022-08-30T07:23:00.801Z,3.70
2022-08-30T07:24:00.879Z,3.80
2022-08-30T07:25:00.780Z,3.60
2022-08-30T07:26:00.773Z,3.80
2022-08-30T07:27:00.770Z,3.50
2022-08-30T07:28:00.774Z,3.40
2022-08-30T07:29:01.573Z,3.50
2022-08-30T07:30:00.851Z,3.40
2022-08-30T07:31:01.932Z,3.50
2022-08-30T07:32:00.725Z,3.70
2022-08-30T07:33:00.716Z,3.80
2022-08-30T07:34:00.713Z,3.40
2022-08-30T07:35:00.656Z,3.80
2022-08-30T07:36:01.429Z,3.70
2022-08-30T07:37:00.653Z,3.80
2022-08-30T07:38:00.627Z,3.80
2022-08-30T07:39:00.625Z,3.40
2022-08-30T07:40:00.784Z,3.60
2022-08-30T07:41:00.692Z,3.50
2022-08-30T07:42:00.610Z,3.40
2022-08-30T07:43:00.578Z,3.40
2022-08-30T07:44:00.548Z,3.40
2022-08-30T07:45:00.553Z,3.70
2022-08-30T07:46:00.578Z,3.20
2022-08-30T07:47:00.535Z,3.80
2022-08-30T07:48:00.581Z,3.50
2022-08-30T07:49:00.551Z,3.50
2022-08-30T07:50:00.550Z,3.90
2022-08-30T07:51:05.041Z,3.50
2022-08-30T07:52:00.472Z,3.30
2022-08-30T07:53:00.462Z,3.40
2022-08-30T07:54:00.463Z,3.30
2022-08-30T07:55:00.449Z,3.50
2022-08-30T07:56:00.463Z,3.50
2022-08-30T07:57:00.448Z,3.50
2022-08-30T07:59:00.395Z,3.40
2022-08-30T08:00:00.436Z,3.60
2022-08-30T08:01:00.395Z,3.50
2022-08-30T08:02:00.420Z,3.70
2022-08-30T08:03:00.394Z,3.30
2022-08-30T08:04:00.347Z,3.60
2022-08-30T08:05:00.340Z,3.10
2022-08-30T08:06:00.397Z,3.60
2022-08-30T08:07:00.315Z,3.50
2022-08-30T08:08:00.300Z,3.60
2022-08-30T08:09:00.299Z,3.30
2022-08-30T08:10:00.290Z,3.30
2022-08-30T08:11:00.279Z,3.70
2022-08-30T08:12:00.330Z,3.60
2022-08-30T08:13:00.248Z,3.40
2022-08-30T08:14:00.260Z,3.30
2022-08-30T08:15:01.368Z,3.80
2022-08-30T08:16:01.247Z,3.20
2022-08-30T08:17:00.191Z,3.60
2022-08-30T08:18:00.184Z,3.30
2022-08-30T08:19:00.194Z,4.10
2022-08-30T08:20:00.184Z,3.80
2022-08-30T08:21:00.170Z,3.60
2022-08-30T08:22:20.915Z,3.50
2022-08-30T08:23:01.153Z,3.80
2022-08-30T08:24:00.143Z,4.20
2022-08-30T08:25:00.130Z,3.90
2022-08-30T08:26:00.103Z,4.20
2022-08-30T08:27:00.084Z,4.30
2022-08-30T08:28:00.079Z,3.70
2022-08-30T08:29:00.065Z,4.20
2022-08-30T08:30:00.068Z,3.90
2022-08-30T08:31:00.149Z,3.80
2022-08-30T08:32:00.035Z,3.60
2022-08-30T08:33:00.062Z,3.50
2022-08-30T08:34:59.999Z,3.70
2022-08-30T08:35:59.998Z,3.60
2022-08-30T08:36:59.981Z,3.50
2022-08-30T08:37:59.978Z,3.40
2022-08-30T08:39:00.015Z,3.70
2022-08-30T08:39:59.999Z,3.40
2022-08-30T08:40:59.961Z,3.40
2022-08-30T08:41:59.919Z,3.30
2022-08-30T08:42:59.909Z,3.30
2022-08-30T08:43:59.909Z,3.90
2022-08-30T08:44:59.882Z,3.60
2022-08-30T08:45:59.906Z,3.20
2022-08-30T08:46:59.863Z,3.70
2022-08-30T08:48:01.414Z,3.60
2022-08-30T08:49:00.731Z,3.50
2022-08-30T08:49:59.839Z,3.60
2022-08-30T08:51:02.553Z,3.60
2022-08-30T08:51:59.806Z,3.70
2022-08-30T08:52:59.815Z,3.50
2022-08-30T08:53:59.785Z,3.50
2022-08-30T08:54:59.880Z,3.80
2022-08-30T08:55:59.786Z,3.40
2022-08-30T08:56:59.757Z,3.20
2022-08-30T08:57:59.786Z,3.80
2022-08-30T08:58:59.733Z,3.70
2022-08-30T08:59:59.711Z,3.50
2022-08-30T09:00:59.753Z,4.00
2022-08-30T09:01:59.709Z,3.40
2022-08-30T09:02:59.690Z,3.30
2022-08-30T09:03:59.680Z,3.00
2022-08-30T09:04:59.709Z,3.50
2022-08-30T09:05:59.660Z,3.30
2022-08-30T09:06:59.644Z,3.60
2022-08-30T09:07:59.633Z,3.20
2022-08-30T09:08:59.632Z,3.60
2022-08-30T09:09:59.622Z,3.10
2022-08-30T09:10:59.613Z,3.30
2022-08-30T09:11:59.582Z,3.40
2022-08-30T09:13:02.115Z,3.20
2022-08-30T09:13:59.554Z,3.70
2022-08-30T09:14:59.553Z,3.10
2022-08-30T09:16:00.074Z,3.40
2022-08-30T09:17:02.992Z,4.00
2022-08-30T09:17:59.525Z,3.80
2022-08-30T09:18:59.505Z,3.50
2022-08-30T09:19:59.495Z,3.30
2022-08-30T09:20:59.496Z,3.80
2022-08-30T09:21:59.466Z,3.50
2022-08-30T09:22:59.466Z,3.80
2022-08-30T09:23:59.447Z,3.60
2022-08-30T09:24:59.438Z,4.10
2022-08-30T09:25:59.438Z,3.80
2022-08-30T09:26:59.419Z,3.10
2022-08-30T09:27:59.406Z,3.90
2022-08-30T09:28:59.399Z,3.50
2022-08-30T09:29:59.395Z,3.70
2022-08-30T09:30:59.447Z,3.70
2022-08-30T09:32:22.583Z,4.20
2022-08-30T09:33:00.352Z,3.50
2022-08-30T09:33:59.333Z,3.10
2022-08-30T09:34:59.430Z,3.30
2022-08-30T09:35:59.330Z,3.50
2022-08-30T09:36:59.302Z,3.00
2022-08-30T09:37:59.292Z,3.30
2022-08-30T09:38:59.283Z,3.70
2022-08-30T09:39:59.297Z,3.50
2022-08-30T09:40:59.283Z,2.90
2022-08-30T09:41:59.397Z,3.10
2022-08-30T09:42:59.240Z,2.80
2022-08-30T09:43:59.215Z,3.10
2022-08-30T09:44:59.227Z,3.20
2022-08-30T09:45:59.289Z,3.20
2022-08-30T09:46:59.204Z,3.20
2022-08-30T09:47:59.186Z,3.60
2022-08-30T09:49:00.126Z,3.50
2022-08-30T09:49:59.156Z,3.40
2022-08-30T09:50:59.277Z,3.10
2022-08-30T09:51:59.236Z,3.00
2022-08-30T09:52:59.138Z,2.80
2022-08-30T09:54:17.925Z,2.90
2022-08-30T09:55:00.119Z,2.90
2022-08-30T09:55:59.099Z,2.90
2022-08-30T09:56:59.079Z,3.10
2022-08-30T09:57:59.077Z,3.20
2022-08-30T09:58:59.070Z,2.80
2022-08-30T09:59:59.040Z,2.90
2022-08-30T10:00:59.102Z,2.60
2022-08-30T10:01:59.023Z,2.90
2022-08-30T10:02:59.021Z,2.50
2022-08-30T10:03:59.012Z,2.60
2022-08-30T10:04:59.211Z,2.80
2022-08-30T10:05:58.994Z,2.70
2022-08-30T10:06:58.972Z,3.10
2022-08-30T10:07:58.964Z,2.80
2022-08-30T10:08:58.954Z,2.80
2022-08-30T10:09:58.943Z,2.70
2022-08-30T10:10:58.941Z,2.40
2022-08-30T10:11:58.913Z,2.70
2022-08-30T10:12:58.896Z,2.60
2022-08-30T10:13:59.564Z,3.00
2022-08-30T10:14:58.874Z,2.50
2022-08-30T10:15:58.873Z,2.40
2022-08-30T10:16:58.880Z,2.40
2022-08-30T10:17:58.848Z,2.50
2022-08-30T10:18:58.828Z,2.60
2022-08-30T10:19:58.820Z,2.60
2022-08-30T10:20:58.828Z,2.60
2022-08-30T10:21:58.799Z,2.90
2022-08-30T10:22:58.975Z,2.80
2022-08-30T10:23:58.790Z,2.80
2022-08-30T10:24:58.769Z,2.70
2022-08-30T10:25:58.818Z,2.70
2022-08-30T10:26:58.743Z,3.00
2022-08-30T10:27:58.733Z,3.10
2022-08-30T10:28:58.718Z,2.60
2022-08-30T10:29:58.701Z,2.70
2022-08-30T10:30:58.711Z,2.40
2022-08-30T10:31:58.689Z,2.80
2022-08-30T10:32:58.699Z,2.90
2022-08-30T10:33:58.672Z,2.80
2022-08-30T10:34:58.652Z,2.90
2022-08-30T10:35:58.663Z,2.70
2022-08-30T10:36:58.635Z,2.80
2022-08-30T10:37:58.623Z,2.90
2022-08-30T10:38:58.613Z,2.40
2022-08-30T10:39:58.593Z,2.40
2022-08-30T10:40:58.616Z,2.50
2022-08-30T10:41:58.574Z,2.60
2022-08-30T10:42:58.575Z,2.50
2022-08-30T10:43:58.546Z,2.60
2022-08-30T10:44:58.546Z,2.80
2022-08-30T10:45:58.550Z,2.80
2022-08-30T10:46:58.517Z,2.80
2022-08-30T10:47:58.508Z,2.80
2022-08-30T10:48:58.500Z,2.90
2022-08-30T10:49:58.480Z,2.90
2022-08-30T10:50:58.534Z,2.70
2022-08-30T10:51:59.025Z,2.50
2022-08-30T10:52:58.459Z,2.60
2022-08-30T10:53:58.453Z,2.60
2022-08-30T10:54:58.438Z,2.80
2022-08-30T10:55:58.452Z,2.60
2022-08-30T10:56:58.412Z,2.80
2022-08-30T10:57:58.398Z,3.00
2022-08-30T10:58:58.381Z,2.40
2022-08-30T10:59:58.372Z,2.80
2022-08-30T11:00:58.430Z,2.80
2022-08-30T11:01:58.352Z,2.30
2022-08-30T11:02:58.342Z,2.90
2022-08-30T11:03:58.332Z,2.50
2022-08-30T11:04:58.349Z,2.80
2022-08-30T11:05:58.324Z,2.60
2022-08-30T11:06:58.305Z,2.80
2022-08-30T11:07:58.291Z,2.50
2022-08-30T11:08:58.287Z,2.60
2022-08-30T11:09:58.275Z,2.60
2022-08-30T11:10:58.268Z,2.70
2022-08-30T11:11:58.248Z,2.50
2022-08-30T11:12:58.226Z,2.50
2022-08-30T11:14:01.232Z,2.60
2022-08-30T11:14:59.245Z,2.70
2022-08-30T11:15:58.209Z,2.40
2022-08-30T11:16:58.199Z,2.50
2022-08-30T11:17:58.180Z,2.60
2022-08-30T11:18:58.183Z,3.20
2022-08-30T11:19:58.190Z,2.50
2022-08-30T11:20:58.147Z,2.60
2022-08-30T11:21:58.138Z,2.80
2022-08-30T11:22:58.130Z,2.50
2022-08-30T11:23:58.123Z,2.50
2022-08-30T11:24:58.111Z,3.20
2022-08-30T11:25:58.354Z,2.30
2022-08-30T11:26:58.072Z,2.90
2022-08-30T11:27:58.078Z,2.60
2022-08-30T11:28:58.051Z,2.60
2022-08-30T11:29:58.062Z,2.60
2022-08-30T11:30:58.034Z,3.00
2022-08-30T11:31:58.053Z,3.00
2022-08-30T11:32:58.003Z,2.80
2022-08-30T11:33:58.014Z,2.80
2022-08-30T11:34:57.995Z,2.80
2022-08-30T11:35:57.975Z,2.80
2022-08-30T11:36:57.956Z,2.90
2022-08-30T11:37:57.965Z,2.70
2022-08-30T11:38:57.937Z,2.70
2022-08-30T11:39:57.990Z,2.70
2022-08-30T11:40:57.915Z,3.10
2022-08-30T11:41:57.931Z,2.80
2022-08-30T11:42:57.902Z,2.80
2022-08-30T11:43:57.886Z,2.50
2022-08-30T11:44:57.888Z,3.20
2022-08-30T11:45:57.924Z,3.10
2022-08-30T11:46:57.942Z,2.90
2022-08-30T11:47:59.823Z,3.00
2022-08-30T11:48:57.859Z,2.80
2022-08-30T11:49:57.854Z,2.80
2022-08-30T11:50:57.800Z,2.50
2022-08-30T11:52:26.697Z,3.10
2022-08-30T11:52:58.808Z,2.80
2022-08-30T11:53:57.794Z,2.80
2022-08-30T11:54:58.014Z,2.70
2022-08-30T11:55:57.762Z,2.90
2022-08-30T11:56:57.775Z,2.80
2022-08-30T11:57:57.772Z,2.90
2022-08-30T11:58:57.726Z,2.70
2022-08-30T11:59:57.733Z,3.00
2022-08-30T12:00:57.708Z,2.80
2022-08-30T12:01:57.814Z,2.80
2022-08-30T12:02:59.220Z,2.70
2022-08-30T12:03:57.662Z,2.90
2022-08-30T12:04:57.671Z,2.80
2022-08-30T12:05:58.937Z,2.80
2022-08-30T12:06:57.649Z,2.50
2022-08-30T12:07:57.626Z,2.90
2022-08-30T12:09:02.675Z,2.40
2022-08-30T12:09:58.623Z,2.70
2022-08-30T12:10:57.592Z,2.70
2022-08-30T12:11:57.578Z,2.80
2022-08-30T12:12:58.151Z,2.50
2022-08-30T12:13:57.608Z,2.70
2022-08-30T12:14:57.572Z,2.40
2022-08-30T12:15:57.549Z,2.60
2022-08-30T12:16:57.589Z,2.60
2022-08-30T12:17:57.538Z,2.70
2022-08-30T12:18:58.299Z,2.80
2022-08-30T12:19:57.540Z,2.60
2022-08-30T12:20:58.259Z,2.40
2022-08-30T12:21:58.921Z,2.30
2022-08-30T12:22:58.229Z,2.50
2022-08-30T12:23:57.460Z,2.60
2022-08-30T12:24:58.191Z,2.50
2022-08-30T12:25:58.192Z,2.20
2022-08-30T12:26:57.414Z,2.40
2022-08-30T12:28:01.741Z,2.40
2022-08-30T12:28:57.404Z,2.30
2022-08-30T12:29:57.396Z,2.40
2022-08-30T12:30:57.824Z,2.10
2022-08-30T12:31:58.664Z,2.50
2022-08-30T12:32:58.128Z,2.30
2022-08-30T12:33:58.724Z,2.20
2022-08-30T12:34:57.356Z,2.20
2022-08-30T12:35:57.316Z,2.20
2022-08-30T12:36:57.307Z,2.50
2022-08-30T12:37:58.067Z,2.40
2022-08-30T12:38:57.279Z,2.20
2022-08-30T12:39:58.062Z,2.50
2022-08-30T12:40:57.258Z,2.30
2022-08-30T12:41:58.101Z,2.00
2022-08-30T12:42:58.683Z,2.40
2022-08-30T12:43:57.408Z,2.50
2022-08-30T12:44:57.377Z,2.20
2022-08-30T12:45:58.205Z,2.10
2022-08-30T12:46:59.832Z,2.00
2022-08-30T12:47:57.409Z,2.30
2022-08-30T12:48:57.188Z,2.50
2022-08-30T12:49:57.760Z,2.40
2022-08-30T12:50:57.923Z,2.50
2022-08-30T12:51:57.135Z,2.50
2022-08-30T12:52:57.123Z,2.30
2022-08-30T12:53:57.137Z,2.70
2022-08-30T12:54:57.876Z,2.40
2022-08-30T12:55:57.865Z,2.10
2022-08-30T12:56:57.848Z,2.40
2022-08-30T12:58:00.900Z,2.50
2022-08-30T12:58:57.077Z,2.30
2022-08-30T13:00:01.672Z,2.30
2022-08-30T13:00:57.929Z,2.70
2022-08-30T13:01:57.872Z,2.60
2022-08-30T13:02:57.789Z,2.40
2022-08-30T13:03:57.027Z,2.40
2022-08-30T13:04:57.005Z,2.50
2022-08-30T13:05:57.971Z,2.40
2022-08-30T13:06:56.970Z,2.50
2022-08-30T13:07:57.733Z,2.30
2022-08-30T13:08:56.981Z,2.60
2022-08-30T13:09:58.412Z,2.40
2022-08-30T13:10:56.952Z,2.60
2022-08-30T13:11:56.912Z,2.50
2022-08-30T13:12:56.902Z,2.80
2022-08-30T13:13:57.631Z,2.10
2022-08-30T13:14:57.843Z,2.50
2022-08-30T13:15:56.881Z,2.70
2022-08-30T13:16:57.680Z,2.90
2022-08-30T13:17:56.856Z,2.30
2022-08-30T13:18:57.801Z,2.40
2022-08-30T13:19:57.613Z,2.00
2022-08-30T13:20:57.009Z,2.50
2022-08-30T13:21:58.267Z,2.60